BEL25J EBAW-EGKK
Flight info
| Callsign | BEL25J |
|---|---|
| Flight time | 0h 41m |
| Altitude | 26000 |
| Route | NIK L610 TEBRA |
| Aircraft | A320/M-SDE3FGHIRWY/LB1 |
Departure
| Time | 2026-04-24 09:21 |
|---|---|
| Airport | Antwerp International Airport (Deurne) (EBAW) |
Arrival
| Time | 2026-04-24 10:02 |
|---|---|
| Airport | London Gatwick Airport (EGKK) |
| Time | Latitude | Longitude | Altitude | Speed | Heading |
|---|---|---|---|---|---|
| 2026-04-24 08:44 | 51.18907 | 4.45273 | 47 ft | 0 kts | 329° |
| 2026-04-24 09:16 | 51.18908 | 4.45272 | 47 ft | 1 kts | 329° |
| 2026-04-24 09:17 | 51.18940 | 4.45255 | 46 ft | 7 kts | 3° |
| 2026-04-24 09:17 | 51.18956 | 4.45319 | 45 ft | 6 kts | 98° |
| 2026-04-24 09:17 | 51.18955 | 4.45395 | 44 ft | 10 kts | 76° |
| 2026-04-24 09:17 | 51.19009 | 4.45519 | 39 ft | 17 kts | 53° |
| 2026-04-24 09:18 | 51.19096 | 4.45692 | 36 ft | 22 kts | 55° |
| 2026-04-24 09:18 | 51.19088 | 4.45917 | 35 ft | 23 kts | 108° |
| 2026-04-24 09:18 | 51.19029 | 4.46179 | 41 ft | 28 kts | 110° |
| 2026-04-24 09:18 | 51.18955 | 4.46497 | 42 ft | 33 kts | 110° |
| 2026-04-24 09:19 | 51.18868 | 4.46870 | 37 ft | 37 kts | 110° |
| 2026-04-24 09:19 | 51.18797 | 4.47179 | 36 ft | 20 kts | 112° |
| 2026-04-24 09:19 | 51.18781 | 4.47263 | 37 ft | 1 kts | 357° |
| 2026-04-24 09:19 | 51.18788 | 4.47246 | 37 ft | 3 kts | 310° |
| 2026-04-24 09:20 | 51.18794 | 4.47223 | 38 ft | 0 kts | 292° |
| 2026-04-24 09:20 | 51.18799 | 4.47207 | 38 ft | 10 kts | 292° |
| 2026-04-24 09:20 | 51.18921 | 4.46693 | 38 ft | 90 kts | 288° |
| 2026-04-24 09:20 | 51.19203 | 4.45412 | 59 ft | 149 kts | 289° |
| 2026-04-24 09:21 | 51.19536 | 4.43899 | 766 ft | 142 kts | 285° |
| 2026-04-24 09:21 | 51.19533 | 4.42315 | 1421 ft | 149 kts | 250° |
| 2026-04-24 09:21 | 51.19044 | 4.40749 | 2037 ft | 166 kts | 245° |
| 2026-04-24 09:21 | 51.18676 | 4.39146 | 2581 ft | 173 kts | 261° |
| 2026-04-24 09:22 | 51.18462 | 4.37206 | 3008 ft | 194 kts | 265° |
| 2026-04-24 09:22 | 51.18331 | 4.35685 | 3056 ft | 220 kts | 265° |
| 2026-04-24 09:22 | 51.18109 | 4.33113 | 3477 ft | 247 kts | 265° |
| 2026-04-24 09:22 | 51.17840 | 4.30285 | 3982 ft | 266 kts | 263° |
| 2026-04-24 09:23 | 51.17424 | 4.26351 | 5076 ft | 276 kts | 262° |
| 2026-04-24 09:23 | 51.17196 | 4.24303 | 5681 ft | 279 kts | 261° |
| 2026-04-24 09:23 | 51.16843 | 4.21241 | 6568 ft | 283 kts | 261° |
| 2026-04-24 09:23 | 51.16665 | 4.18159 | 7428 ft | 284 kts | 274° |
| 2026-04-24 09:24 | 51.16955 | 4.15036 | 8303 ft | 286 kts | 284° |
| 2026-04-24 09:24 | 51.17389 | 4.11926 | 9208 ft | 289 kts | 284° |
| 2026-04-24 09:24 | 51.17820 | 4.08786 | 10086 ft | 292 kts | 284° |
| 2026-04-24 09:24 | 51.18258 | 4.05580 | 10725 ft | 303 kts | 284° |
| 2026-04-24 09:25 | 51.18724 | 4.02175 | 10968 ft | 326 kts | 283° |
| 2026-04-24 09:25 | 51.19218 | 3.98529 | 11189 ft | 348 kts | 283° |
| 2026-04-24 09:25 | 51.19736 | 3.94693 | 11730 ft | 357 kts | 283° |
| 2026-04-24 09:25 | 51.20261 | 3.90802 | 12436 ft | 362 kts | 283° |
| 2026-04-24 09:26 | 51.20795 | 3.86853 | 13159 ft | 366 kts | 283° |
| 2026-04-24 09:26 | 51.21325 | 3.82921 | 13867 ft | 369 kts | 283° |
| 2026-04-24 09:26 | 51.21866 | 3.78885 | 14524 ft | 373 kts | 283° |
| 2026-04-24 09:26 | 51.22408 | 3.74827 | 15157 ft | 376 kts | 283° |
| 2026-04-24 09:27 | 51.22951 | 3.70736 | 15786 ft | 379 kts | 282° |
| 2026-04-24 09:27 | 51.23497 | 3.66602 | 16409 ft | 382 kts | 282° |
| 2026-04-24 09:27 | 51.24051 | 3.62433 | 17028 ft | 385 kts | 282° |
| 2026-04-24 09:27 | 51.24613 | 3.58245 | 17640 ft | 388 kts | 282° |
| 2026-04-24 09:28 | 51.25179 | 3.54022 | 18256 ft | 391 kts | 281° |
| 2026-04-24 09:28 | 51.25750 | 3.49747 | 18848 ft | 394 kts | 281° |
| 2026-04-24 09:28 | 51.26318 | 3.45453 | 19395 ft | 397 kts | 281° |
| 2026-04-24 09:28 | 51.26887 | 3.41130 | 19941 ft | 399 kts | 280° |
| 2026-04-24 09:29 | 51.27458 | 3.36765 | 20475 ft | 402 kts | 280° |
| 2026-04-24 09:29 | 51.28016 | 3.32431 | 21023 ft | 405 kts | 279° |
| 2026-04-24 09:29 | 51.28581 | 3.28003 | 21532 ft | 407 kts | 279° |
| 2026-04-24 09:29 | 51.29148 | 3.23548 | 22057 ft | 410 kts | 279° |
| 2026-04-24 09:30 | 51.29719 | 3.19072 | 22569 ft | 412 kts | 279° |
| 2026-04-24 09:30 | 51.30484 | 3.13049 | 23238 ft | 415 kts | 278° |
| 2026-04-24 09:30 | 51.30883 | 3.09904 | 23569 ft | 417 kts | 278° |
| 2026-04-24 09:30 | 51.31424 | 3.05641 | 23987 ft | 419 kts | 278° |
| 2026-04-24 09:31 | 51.32005 | 3.01067 | 24361 ft | 421 kts | 278° |
| 2026-04-24 09:31 | 51.32588 | 2.96463 | 24730 ft | 423 kts | 278° |
| 2026-04-24 09:31 | 51.33169 | 2.91844 | 25091 ft | 425 kts | 278° |
| 2026-04-24 09:31 | 51.33751 | 2.87185 | 25453 ft | 426 kts | 278° |
| 2026-04-24 09:32 | 51.34321 | 2.82582 | 25805 ft | 428 kts | 277° |
| 2026-04-24 09:32 | 51.34896 | 2.77904 | 26148 ft | 430 kts | 277° |
| 2026-04-24 09:32 | 51.35474 | 2.73199 | 26334 ft | 431 kts | 277° |
| 2026-04-24 09:32 | 51.36056 | 2.68468 | 26361 ft | 434 kts | 277° |
| 2026-04-24 09:33 | 51.36644 | 2.63708 | 26327 ft | 435 kts | 277° |
| 2026-04-24 09:33 | 51.37233 | 2.58951 | 26074 ft | 435 kts | 278° |
| 2026-04-24 09:33 | 51.37822 | 2.54189 | 25826 ft | 434 kts | 278° |
| 2026-04-24 09:33 | 51.38397 | 2.49508 | 25595 ft | 433 kts | 278° |
| 2026-04-24 09:34 | 51.38971 | 2.44787 | 25355 ft | 432 kts | 278° |
| 2026-04-24 09:34 | 51.39543 | 2.40065 | 25111 ft | 431 kts | 278° |
| 2026-04-24 09:34 | 51.40110 | 2.35357 | 24881 ft | 429 kts | 278° |
| 2026-04-24 09:34 | 51.40672 | 2.30662 | 24650 ft | 428 kts | 278° |
| 2026-04-24 09:35 | 51.41231 | 2.25974 | 24410 ft | 427 kts | 278° |
| 2026-04-24 09:35 | 51.41786 | 2.21303 | 24187 ft | 426 kts | 278° |
| 2026-04-24 09:35 | 51.42340 | 2.16655 | 23952 ft | 425 kts | 278° |
| 2026-04-24 09:35 | 51.42885 | 2.12079 | 23462 ft | 420 kts | 278° |
| 2026-04-24 09:36 | 51.43427 | 2.07497 | 22841 ft | 416 kts | 278° |
| 2026-04-24 09:36 | 51.43960 | 2.02968 | 22248 ft | 411 kts | 278° |
| 2026-04-24 09:36 | 51.44492 | 1.98472 | 21697 ft | 407 kts | 279° |
| 2026-04-24 09:36 | 51.45032 | 1.94027 | 21142 ft | 404 kts | 279° |
| 2026-04-24 09:37 | 51.45577 | 1.89649 | 20632 ft | 396 kts | 279° |
| 2026-04-24 09:37 | 51.46110 | 1.85392 | 20124 ft | 393 kts | 279° |
| 2026-04-24 09:37 | 51.46629 | 1.81101 | 19637 ft | 390 kts | 279° |
| 2026-04-24 09:37 | 51.47129 | 1.76825 | 19153 ft | 388 kts | 279° |
| 2026-04-24 09:38 | 51.47612 | 1.72594 | 18698 ft | 385 kts | 279° |
| 2026-04-24 09:38 | 51.48087 | 1.68372 | 18170 ft | 382 kts | 279° |
| 2026-04-24 09:38 | 51.48399 | 1.64159 | 17709 ft | 378 kts | 271° |
| 2026-04-24 09:38 | 51.48254 | 1.59973 | 17234 ft | 373 kts | 261° |
| 2026-04-24 09:39 | 51.47673 | 1.55943 | 16754 ft | 370 kts | 251° |
| 2026-04-24 09:39 | 51.46795 | 1.52079 | 16278 ft | 368 kts | 249° |
| 2026-04-24 09:39 | 51.45905 | 1.48228 | 15782 ft | 366 kts | 249° |
| 2026-04-24 09:39 | 51.45024 | 1.44406 | 15290 ft | 365 kts | 249° |
| 2026-04-24 09:40 | 51.44042 | 1.40728 | 14798 ft | 364 kts | 241° |
| 2026-04-24 09:40 | 51.42623 | 1.37328 | 14452 ft | 371 kts | 230° |
| 2026-04-24 09:40 | 51.40789 | 1.34387 | 14365 ft | 374 kts | 218° |
| 2026-04-24 09:40 | 51.38696 | 1.31877 | 14384 ft | 376 kts | 216° |
| 2026-04-24 09:41 | 51.36595 | 1.29394 | 14385 ft | 376 kts | 216° |
| 2026-04-24 09:41 | 51.34489 | 1.26898 | 14381 ft | 376 kts | 216° |
| 2026-04-24 09:41 | 51.32383 | 1.24398 | 13632 ft | 381 kts | 217° |
| 2026-04-24 09:41 | 51.30505 | 1.21534 | 13151 ft | 371 kts | 231° |
| 2026-04-24 09:42 | 51.29083 | 1.18083 | 12197 ft | 366 kts | 238° |
| 2026-04-24 09:42 | 51.27790 | 1.14639 | 11634 ft | 367 kts | 239° |
| 2026-04-24 09:42 | 51.26493 | 1.11117 | 11439 ft | 369 kts | 239° |
| 2026-04-24 09:42 | 51.25194 | 1.07565 | 11363 ft | 371 kts | 239° |
| 2026-04-24 09:43 | 51.23891 | 1.04008 | 11367 ft | 371 kts | 239° |
| 2026-04-24 09:43 | 51.22583 | 1.00457 | 11364 ft | 371 kts | 239° |
| 2026-04-24 09:43 | 51.21269 | 0.96920 | 11367 ft | 371 kts | 239° |
| 2026-04-24 09:43 | 51.19950 | 0.93382 | 11364 ft | 371 kts | 238° |
| 2026-04-24 09:44 | 51.18626 | 0.89834 | 11362 ft | 371 kts | 238° |
| 2026-04-24 09:44 | 51.17323 | 0.86346 | 11131 ft | 370 kts | 238° |
| 2026-04-24 09:44 | 51.16004 | 0.82825 | 10890 ft | 369 kts | 238° |
| 2026-04-24 09:44 | 51.14708 | 0.79365 | 10642 ft | 356 kts | 238° |
| 2026-04-24 09:45 | 51.13481 | 0.76083 | 10399 ft | 335 kts | 238° |
| 2026-04-24 09:45 | 51.12318 | 0.72973 | 10257 ft | 319 kts | 238° |
| 2026-04-24 09:45 | 51.11206 | 0.70008 | 10109 ft | 306 kts | 238° |
| 2026-04-24 09:45 | 51.10116 | 0.67120 | 9986 ft | 304 kts | 237° |
| 2026-04-24 09:46 | 51.09049 | 0.64305 | 9623 ft | 299 kts | 237° |
| 2026-04-24 09:46 | 51.07978 | 0.61485 | 9048 ft | 297 kts | 237° |
| 2026-04-24 09:46 | 51.06916 | 0.58681 | 8539 ft | 296 kts | 237° |
| 2026-04-24 09:46 | 51.05864 | 0.55894 | 8365 ft | 293 kts | 237° |
| 2026-04-24 09:47 | 51.04813 | 0.53111 | 8376 ft | 294 kts | 237° |
| 2026-04-24 09:47 | 51.03756 | 0.50327 | 8371 ft | 294 kts | 237° |
| 2026-04-24 09:47 | 51.02696 | 0.47539 | 8374 ft | 294 kts | 237° |
| 2026-04-24 09:47 | 51.01641 | 0.44767 | 8377 ft | 294 kts | 237° |
| 2026-04-24 09:48 | 51.00583 | 0.41986 | 8379 ft | 294 kts | 237° |
| 2026-04-24 09:48 | 50.99522 | 0.39200 | 8373 ft | 294 kts | 237° |
| 2026-04-24 09:48 | 50.98475 | 0.36452 | 8377 ft | 294 kts | 237° |
| 2026-04-24 09:48 | 50.97417 | 0.33677 | 8369 ft | 294 kts | 237° |
| 2026-04-24 09:49 | 50.96358 | 0.30898 | 8375 ft | 294 kts | 237° |
| 2026-04-24 09:49 | 50.95298 | 0.28124 | 8371 ft | 294 kts | 237° |
| 2026-04-24 09:49 | 50.94347 | 0.25260 | 8365 ft | 295 kts | 251° |
| 2026-04-24 09:49 | 50.94082 | 0.22056 | 8370 ft | 289 kts | 269° |
| 2026-04-24 09:50 | 50.94104 | 0.18965 | 8364 ft | 272 kts | 271° |
| 2026-04-24 09:50 | 50.94155 | 0.16010 | 8361 ft | 265 kts | 271° |
| 2026-04-24 09:50 | 50.94209 | 0.13088 | 8357 ft | 264 kts | 271° |
| 2026-04-24 09:50 | 50.94266 | 0.10186 | 8221 ft | 262 kts | 271° |
| 2026-04-24 09:51 | 50.94319 | 0.07310 | 7682 ft | 260 kts | 271° |
| 2026-04-24 09:51 | 50.94374 | 0.04442 | 7166 ft | 259 kts | 271° |
| 2026-04-24 09:51 | 50.94430 | 0.01605 | 6686 ft | 256 kts | 271° |
| 2026-04-24 09:51 | 50.94485 | -0.01173 | 6149 ft | 254 kts | 271° |
| 2026-04-24 09:52 | 50.94540 | -0.03966 | 5642 ft | 252 kts | 271° |
| 2026-04-24 09:52 | 50.94591 | -0.06734 | 5145 ft | 250 kts | 271° |
| 2026-04-24 09:52 | 50.94636 | -0.09476 | 4636 ft | 248 kts | 270° |
| 2026-04-24 09:52 | 50.94687 | -0.12202 | 4078 ft | 246 kts | 271° |
| 2026-04-24 09:53 | 50.94741 | -0.14939 | 3990 ft | 251 kts | 271° |
| 2026-04-24 09:53 | 50.94800 | -0.17684 | 4012 ft | 247 kts | 271° |
| 2026-04-24 09:53 | 50.94853 | -0.20399 | 4008 ft | 246 kts | 271° |
| 2026-04-24 09:53 | 50.94910 | -0.23106 | 4018 ft | 246 kts | 271° |
| 2026-04-24 09:54 | 50.95104 | -0.25793 | 3995 ft | 245 kts | 289° |
| 2026-04-24 09:54 | 50.95744 | -0.28294 | 4004 ft | 245 kts | 295° |
| 2026-04-24 09:54 | 50.96465 | -0.30761 | 4006 ft | 246 kts | 296° |
| 2026-04-24 09:54 | 50.97197 | -0.33211 | 3954 ft | 246 kts | 296° |
| 2026-04-24 09:55 | 50.97928 | -0.35651 | 3650 ft | 244 kts | 296° |
| 2026-04-24 09:55 | 50.98655 | -0.38085 | 3350 ft | 244 kts | 296° |
| 2026-04-24 09:55 | 50.99383 | -0.40508 | 3096 ft | 244 kts | 296° |
| 2026-04-24 09:55 | 51.00126 | -0.42935 | 3006 ft | 242 kts | 296° |
| 2026-04-24 09:56 | 51.00931 | -0.45287 | 3006 ft | 243 kts | 305° |
| 2026-04-24 09:56 | 51.02068 | -0.47186 | 3008 ft | 240 kts | 331° |
| 2026-04-24 09:56 | 51.03565 | -0.48342 | 3010 ft | 239 kts | 340° |
| 2026-04-24 09:56 | 51.05102 | -0.49334 | 3011 ft | 239 kts | 340° |
| 2026-04-24 09:57 | 51.06657 | -0.50246 | 2999 ft | 235 kts | 351° |
| 2026-04-24 09:57 | 51.08231 | -0.50348 | 2987 ft | 226 kts | 18° |
| 2026-04-24 09:57 | 51.09647 | -0.49313 | 3007 ft | 224 kts | 41° |
| 2026-04-24 09:57 | 51.10670 | -0.47494 | 3004 ft | 216 kts | 64° |
| 2026-04-24 09:58 | 51.11150 | -0.45334 | 3003 ft | 199 kts | 80° |
| 2026-04-24 09:58 | 51.11444 | -0.43232 | 3027 ft | 193 kts | 79° |
| 2026-04-24 09:58 | 51.11733 | -0.41154 | 2999 ft | 189 kts | 79° |
| 2026-04-24 09:58 | 51.12018 | -0.39121 | 2994 ft | 187 kts | 79° |
| 2026-04-24 09:59 | 51.12266 | -0.37288 | 2736 ft | 194 kts | 81° |
| 2026-04-24 09:59 | 51.12555 | -0.35170 | 2266 ft | 199 kts | 78° |
| 2026-04-24 09:59 | 51.12914 | -0.33038 | 1789 ft | 194 kts | 77° |
| 2026-04-24 09:59 | 51.13202 | -0.31025 | 1495 ft | 181 kts | 80° |
| 2026-04-24 10:00 | 51.13442 | -0.29082 | 1237 ft | 173 kts | 79° |
| 2026-04-24 10:00 | 51.13659 | -0.27310 | 980 ft | 156 kts | 78° |
| 2026-04-24 10:00 | 51.13878 | -0.25722 | 845 ft | 140 kts | 76° |
| 2026-04-24 10:00 | 51.14080 | -0.24258 | 683 ft | 136 kts | 77° |
| 2026-04-24 10:01 | 51.14285 | -0.22818 | 514 ft | 134 kts | 76° |
| 2026-04-24 10:01 | 51.14487 | -0.21378 | 318 ft | 133 kts | 75° |
| 2026-04-24 10:01 | 51.14679 | -0.19968 | 218 ft | 126 kts | 75° |
| 2026-04-24 10:01 | 51.14830 | -0.18851 | 208 ft | 66 kts | 79° |
| 2026-04-24 10:02 | 51.14930 | -0.18535 | 209 ft | 19 kts | 48° |
| 2026-04-24 10:02 | 51.14978 | -0.18445 | 206 ft | 0 kts | 57° |
| 2026-04-24 10:02 | 51.14980 | -0.18439 | 205 ft | 0 kts | 58° |
| 2026-04-24 10:03 | 51.14983 | -0.18432 | 209 ft | 2 kts | 59° |
| 2026-04-24 10:03 | 51.15000 | -0.18387 | 210 ft | 9 kts | 56° |
| 2026-04-24 10:04 | 51.15071 | -0.18243 | 205 ft | 23 kts | 51° |
| 2026-04-24 10:04 | 51.15136 | -0.17979 | 209 ft | 28 kts | 79° |
| 2026-04-24 10:04 | 51.15184 | -0.17661 | 210 ft | 31 kts | 79° |
| 2026-04-24 10:04 | 51.15211 | -0.17453 | 206 ft | 17 kts | 73° |
| 2026-04-24 10:05 | 51.15267 | -0.17340 | 207 ft | 13 kts | 9° |
| 2026-04-24 10:05 | 51.15343 | -0.17360 | 209 ft | 0 kts | 358° |
| 2026-04-24 10:05 | 51.15349 | -0.17353 | 204 ft | 6 kts | 33° |
| 2026-04-24 10:05 | 51.15374 | -0.17241 | 207 ft | 12 kts | 72° |
| 2026-04-24 10:06 | 51.15395 | -0.17151 | 209 ft | 6 kts | 68° |
| 2026-04-24 10:06 | 51.15412 | -0.17069 | 207 ft | 3 kts | 79° |
| 2026-04-24 10:06 | 51.15414 | -0.17045 | 209 ft | 0 kts | 83° |
| 2026-04-24 10:07 | 51.15414 | -0.17043 | 210 ft | 0 kts | 83° |
| 2026-04-24 10:07 | 51.15432 | -0.17007 | 214 ft | 8 kts | 21° |
| 2026-04-24 10:07 | 51.15447 | -0.17008 | 210 ft | 0 kts | 343° |
| 2026-04-24 10:07 | 51.15462 | -0.17016 | 213 ft | 3 kts | 345° |
| 2026-04-24 10:08 | 51.15473 | -0.17020 | 205 ft | 0 kts | 349° |
| 2026-04-24 10:08 | 51.15476 | -0.17021 | 214 ft | 0 kts | 347° |